^^
Saratoga-Weather Station Historical Data
Daily Summary for August 20, 2022 Units:  Both    English   Metric
Daily Weekly Monthly Yearly Custom
  High: Low: Average:
Temperature: 79.2 °F /  26.2 °C 61.5 °F /  16.4 °C 70 °F /  21.1 °C
Dew Point: 62.6 °F /  17 °C 51.4 °F /  10.8 °C 57 °F /  13.9 °C
Humidity: 88% 39% 66%
Wind Speed: 11mph /  17.7km/h - 3.5mph /  5.7km/h
Wind Gust: 14mph /  22.5km/h - -
Wind- - WNW
Pressure: 30 in /  1017.3 hPa 30 in /  1014.9 hPa -
Precipitation: 0 in /  0.0 mm    
Historical Graphs
 
 
Tabular Data for August 20, 2022
Time Temperature Dew Point Pressure Wind Wind Speed Wind Gust Humidity Rainfall Rate (Hourly) solar
00:02 70 °F /  21.1 °C 62.4 °F /  16.9 °C 30in /  1015.2hPa WNW 4mph /  6.4km/h 7mph /  11.3km/h 77% 0in /  0.0mm 0 W/m2
00:07 70 °F /  21.1 °C 62.4 °F /  16.9 °C 30in /  1015.2hPa WNW 2.9mph /  4.7km/h 6mph /  9.7km/h 77% 0in /  0.0mm 0 W/m2
00:12 69.6 °F /  20.9 °C 62.1 °F /  16.7 °C 30in /  1015.2hPa West 6.9mph /  11.1km/h 12mph /  19.3km/h 77% 0in /  0.0mm 0 W/m2
00:17 69.6 °F /  20.9 °C 62.1 °F /  16.7 °C 30in /  1015.2hPa NW 4.9mph /  7.9km/h 10mph /  16.1km/h 77% 0in /  0.0mm 0 W/m2
00:22 69.4 °F /  20.8 °C 62.2 °F /  16.8 °C 30in /  1015.2hPa NW 2mph /  3.2km/h 12mph /  19.3km/h 78% 0in /  0.0mm 0 W/m2
00:27 69.3 °F /  20.7 °C 62.1 °F /  16.7 °C 30in /  1015.2hPa WNW 4.9mph /  7.9km/h 8mph /  12.9km/h 78% 0in /  0.0mm 0 W/m2
00:32 69.1 °F /  20.6 °C 62.2 °F /  16.8 °C 30in /  1015.2hPa WNW 2.9mph /  4.7km/h 9mph /  14.5km/h 79% 0in /  0.0mm 0 W/m2
00:37 68.9 °F /  20.5 °C 62.1 °F /  16.7 °C 30in /  1015.2hPa West 2.9mph /  4.7km/h 9mph /  14.5km/h 79% 0in /  0.0mm 0 W/m2
00:42 68.7 °F /  20.4 °C 62.2 °F /  16.8 °C 30in /  1015.2hPa West 2.9mph /  4.7km/h 7mph /  11.3km/h 80% 0in /  0.0mm 0 W/m2
00:47 68.5 °F /  20.3 °C 62.1 °F /  16.7 °C 30in /  1015.2hPa WNW 2.9mph /  4.7km/h 9mph /  14.5km/h 80% 0in /  0.0mm 0 W/m2
00:52 68.5 °F /  20.3 °C 62.1 °F /  16.7 °C 30in /  1015.2hPa SW 4.9mph /  7.9km/h 6mph /  9.7km/h 80% 0in /  0.0mm 0 W/m2
00:57 68.5 °F /  20.3 °C 62.1 °F /  16.7 °C 30in /  1015.2hPa WNW 0.9mph /  1.4km/h 3mph /  4.8km/h 80% 0in /  0.0mm 0 W/m2
01:02 68.4 °F /  20.2 °C 61.9 °F /  16.6 °C 30in /  1015.2hPa NW 0.9mph /  1.4km/h 4mph /  6.4km/h 80% 0in /  0.0mm 0 W/m2
01:07 68.4 °F /  20.2 °C 61.9 °F /  16.6 °C 30in /  1015.2hPa NW 2mph /  3.2km/h 2mph /  3.2km/h 80% 0in /  0.0mm 0 W/m2
01:12 68.4 °F /  20.2 °C 62.2 °F /  16.8 °C 30in /  1015.2hPa West 2mph /  3.2km/h 2mph /  3.2km/h 81% 0in /  0.0mm 0 W/m2
01:17 68.4 °F /  20.2 °C 62.2 °F /  16.8 °C 30in /  1015.2hPa WSW 4mph /  6.4km/h 4mph /  6.4km/h 81% 0in /  0.0mm 0 W/m2
01:22 68.2 °F /  20.1 °C 62.1 °F /  16.7 °C 30in /  1015.2hPa West 2.9mph /  4.7km/h 7mph /  11.3km/h 81% 0in /  0.0mm 0 W/m2
01:27 68 °F /  20 °C 62.2 °F /  16.8 °C 30in /  1015.2hPa West 2.9mph /  4.7km/h 6mph /  9.7km/h 82% 0in /  0.0mm 0 W/m2
01:32 67.8 °F /  19.9 °C 62.1 °F /  16.7 °C 30in /  1015.2hPa West 2.9mph /  4.7km/h 7mph /  11.3km/h 82% 0in /  0.0mm 0 W/m2
01:37 67.8 °F /  19.9 °C 62.1 °F /  16.7 °C 30in /  1015.2hPa West 2.9mph /  4.7km/h 3mph /  4.8km/h 82% 0in /  0.0mm 0 W/m2
01:42 67.6 °F /  19.8 °C 62.2 °F /  16.8 °C 30in /  1015.2hPa West 2.9mph /  4.7km/h 3mph /  4.8km/h 83% 0in /  0.0mm 0 W/m2
01:47 67.6 °F /  19.8 °C 62.2 °F /  16.8 °C 30in /  1014.9hPa WSW 2.9mph /  4.7km/h 4mph /  6.4km/h 83% 0in /  0.0mm 0 W/m2
01:52 67.5 °F /  19.7 °C 62.4 °F /  16.9 °C 30in /  1015.2hPa West 0.9mph /  1.4km/h 7mph /  11.3km/h 84% 0in /  0.0mm 0 W/m2
01:57 67.3 °F /  19.6 °C 62.2 °F /  16.8 °C 30in /  1015.2hPa West 0.9mph /  1.4km/h 6mph /  9.7km/h 84% 0in /  0.0mm 0 W/m2
02:02 67.1 °F /  19.5 °C 62.4 °F /  16.9 °C 30in /  1015.2hPa West 4mph /  6.4km/h 7mph /  11.3km/h 85% 0in /  0.0mm 0 W/m2
02:07 66.9 °F /  19.4 °C 62.6 °F /  17 °C 30in /  1015.2hPa WSW 6.9mph /  11.1km/h 8mph /  12.9km/h 86% 0in /  0.0mm 0 W/m2
02:12 66.7 °F /  19.3 °C 62.4 °F /  16.9 °C 30in /  1014.9hPa WNW 2mph /  3.2km/h 5mph /  8km/h 86% 0in /  0.0mm 0 W/m2
02:17 66.7 °F /  19.3 °C 62.4 °F /  16.9 °C 30in /  1014.9hPa West 2mph /  3.2km/h 4mph /  6.4km/h 86% 0in /  0.0mm 0 W/m2
02:22 66.7 °F /  19.3 °C 62.4 °F /  16.9 °C 30in /  1014.9hPa SW 2mph /  3.2km/h 4mph /  6.4km/h 86% 0in /  0.0mm 0 W/m2
02:27 66.7 °F /  19.3 °C 62.4 °F /  16.9 °C 30in /  1014.9hPa WSW 0.9mph /  1.4km/h 4mph /  6.4km/h 86% 0in /  0.0mm 0 W/m2
02:32 66.7 °F /  19.3 °C 62.4 °F /  16.9 °C 30in /  1014.9hPa WNW 4mph /  6.4km/h 6mph /  9.7km/h 86% 0in /  0.0mm 0 W/m2
02:37 66.7 °F /  19.3 °C 62.4 °F /  16.9 °C 30in /  1014.9hPa West 2mph /  3.2km/h 5mph /  8km/h 86% 0in /  0.0mm 0 W/m2
02:42 66.7 °F /  19.3 °C 62.4 °F /  16.9 °C 30in /  1014.9hPa West 2.9mph /  4.7km/h 6mph /  9.7km/h 86% 0in /  0.0mm 0 W/m2
02:47 66.7 °F /  19.3 °C 62.4 °F /  16.9 °C 30in /  1014.9hPa West 7mph /  11.3km/h 7mph /  11.3km/h 86% 0in /  0.0mm 0 W/m2
02:52 66.6 °F /  19.2 °C 62.2 °F /  16.8 °C 30in /  1014.9hPa WSW 4mph /  6.4km/h 6mph /  9.7km/h 86% 0in /  0.0mm 0 W/m2
02:57 66.6 °F /  19.2 °C 62.2 °F /  16.8 °C 30in /  1014.9hPa WNW 0.9mph /  1.4km/h 6mph /  9.7km/h 86% 0in /  0.0mm 0 W/m2
03:02 66.6 °F /  19.2 °C 62.2 °F /  16.8 °C 30in /  1015.2hPa WNW 2mph /  3.2km/h 4mph /  6.4km/h 86% 0in /  0.0mm 0 W/m2
03:07 66.6 °F /  19.2 °C 62.6 °F /  17 °C 30in /  1015.2hPa West 2mph /  3.2km/h 4mph /  6.4km/h 87% 0in /  0.0mm 0 W/m2
03:12 66.4 °F /  19.1 °C 62.4 °F /  16.9 °C 30in /  1015.2hPa West 2mph /  3.2km/h 4mph /  6.4km/h 87% 0in /  0.0mm 0 W/m2
03:17 66.4 °F /  19.1 °C 62.4 °F /  16.9 °C 30in /  1015.2hPa WNW 2.9mph /  4.7km/h 4mph /  6.4km/h 87% 0in /  0.0mm 0 W/m2
03:22 66.4 °F /  19.1 °C 62.4 °F /  16.9 °C 30in /  1015.2hPa WNW 2mph /  3.2km/h 4mph /  6.4km/h 87% 0in /  0.0mm 0 W/m2
03:27 66.2 °F /  19 °C 62.2 °F /  16.8 °C 30in /  1015.2hPa WNW 2mph /  3.2km/h 4mph /  6.4km/h 87% 0in /  0.0mm 0 W/m2
03:32 66 °F /  18.9 °C 62.1 °F /  16.7 °C 30in /  1015.2hPa West 2.9mph /  4.7km/h 4mph /  6.4km/h 87% 0in /  0.0mm 0 W/m2
03:37 66 °F /  18.9 °C 62.4 °F /  16.9 °C 30in /  1015.2hPa West 2mph /  3.2km/h 4mph /  6.4km/h 88% 0in /  0.0mm 0 W/m2
03:42 66 °F /  18.9 °C 62.4 °F /  16.9 °C 30in /  1015.2hPa West 4mph /  6.4km/h 4mph /  6.4km/h 88% 0in /  0.0mm 0 W/m2
03:47 65.8 °F /  18.8 °C 62.2 °F /  16.8 °C 30in /  1015.2hPa West 4mph /  6.4km/h 7mph /  11.3km/h 88% 0in /  0.0mm 0 W/m2
03:52 65.8 °F /  18.8 °C 62.2 °F /  16.8 °C 30in /  1015.2hPa West 2mph /  3.2km/h 7mph /  11.3km/h 88% 0in /  0.0mm 0 W/m2
03:57 65.8 °F /  18.8 °C 62.2 °F /  16.8 °C 30in /  1015.2hPa West 2.9mph /  4.7km/h 6mph /  9.7km/h 88% 0in /  0.0mm 0 W/m2
04:02 65.8 °F /  18.8 °C 62.2 °F /  16.8 °C 30in /  1015.2hPa WSW 2.9mph /  4.7km/h 4mph /  6.4km/h 88% 0in /  0.0mm 0 W/m2
04:07 65.8 °F /  18.8 °C 62.2 °F /  16.8 °C 30in /  1015.2hPa WNW 2mph /  3.2km/h 6mph /  9.7km/h 88% 0in /  0.0mm 0 W/m2
04:12 65.8 °F /  18.8 °C 62.2 °F /  16.8 °C 30in /  1015.2hPa West 2mph /  3.2km/h 3mph /  4.8km/h 88% 0in /  0.0mm 0 W/m2
04:17 65.8 °F /  18.8 °C 62.2 °F /  16.8 °C 30in /  1015.2hPa WNW 2mph /  3.2km/h 7mph /  11.3km/h 88% 0in /  0.0mm 0 W/m2
04:22 65.8 °F /  18.8 °C 62.2 °F /  16.8 °C 30in /  1015.6hPa WNW 2mph /  3.2km/h 6mph /  9.7km/h 88% 0in /  0.0mm 0 W/m2
04:27 65.8 °F /  18.8 °C 62.2 °F /  16.8 °C 30in /  1015.2hPa WNW 4mph /  6.4km/h 8mph /  12.9km/h 88% 0in /  0.0mm 0 W/m2
04:32 65.8 °F /  18.8 °C 62.2 °F /  16.8 °C 30in /  1015.2hPa WNW 2mph /  3.2km/h 6mph /  9.7km/h 88% 0in /  0.0mm 0 W/m2
04:37 66 °F /  18.9 °C 62.4 °F /  16.9 °C 30in /  1015.6hPa NW 2mph /  3.2km/h 7mph /  11.3km/h 88% 0in /  0.0mm 0 W/m2
04:42 66 °F /  18.9 °C 62.1 °F /  16.7 °C 30in /  1015.2hPa WNW 4mph /  6.4km/h 9mph /  14.5km/h 87% 0in /  0.0mm 0 W/m2
04:47 65.8 °F /  18.8 °C 61.9 °F /  16.6 °C 30in /  1015.2hPa NW 6.9mph /  11.1km/h 8mph /  12.9km/h 87% 0in /  0.0mm 0 W/m2
04:52 65.8 °F /  18.8 °C 61.5 °F /  16.4 °C 30in /  1015.2hPa WNW 2.9mph /  4.7km/h 9mph /  14.5km/h 86% 0in /  0.0mm 0 W/m2
04:57 65.8 °F /  18.8 °C 61.5 °F /  16.4 °C 30in /  1015.2hPa West 2mph /  3.2km/h 4mph /  6.4km/h 86% 0in /  0.0mm 0 W/m2
05:02 65.7 °F /  18.7 °C 61.3 °F /  16.3 °C 30in /  1015.2hPa WNW 0.9mph /  1.4km/h 4mph /  6.4km/h 86% 0in /  0.0mm 0 W/m2
05:07 65.7 °F /  18.7 °C 61.3 °F /  16.3 °C 30in /  1015.6hPa WNW 2.9mph /  4.7km/h 4mph /  6.4km/h 86% 0in /  0.0mm 0 W/m2
05:13 65.7 °F /  18.7 °C 61.3 °F /  16.3 °C 30in /  1015.2hPa WNW 2.9mph /  4.7km/h 7mph /  11.3km/h 86% 0in /  0.0mm 0 W/m2
05:18 65.7 °F /  18.7 °C 61.3 °F /  16.3 °C 30in /  1015.2hPa West 2.9mph /  4.7km/h 4mph /  6.4km/h 86% 0in /  0.0mm 0 W/m2
05:23 65.5 °F /  18.6 °C 61.2 °F /  16.2 °C 30in /  1015.2hPa West 4mph /  6.4km/h 8mph /  12.9km/h 86% 0in /  0.0mm 0 W/m2
05:28 65.3 °F /  18.5 °C 61 °F /  16.1 °C 30in /  1015.2hPa West 6mph /  9.7km/h 6mph /  9.7km/h 86% 0in /  0.0mm 0 W/m2
05:33 65.3 °F /  18.5 °C 60.6 °F /  15.9 °C 30in /  1015.2hPa West 2.9mph /  4.7km/h 4mph /  6.4km/h 85% 0in /  0.0mm 0 W/m2
05:38 65.1 °F /  18.4 °C 60.4 °F /  15.8 °C 30in /  1015.6hPa WNW 2.9mph /  4.7km/h 7mph /  11.3km/h 85% 0in /  0.0mm 0 W/m2
05:43 65.1 °F /  18.4 °C 60.1 °F /  15.6 °C 30in /  1015.6hPa WNW 4mph /  6.4km/h 6mph /  9.7km/h 84% 0in /  0.0mm 0 W/m2
05:48 65.1 °F /  18.4 °C 60.1 °F /  15.6 °C 30in /  1015.6hPa WSW 4mph /  6.4km/h 4mph /  6.4km/h 84% 0in /  0.0mm 0 W/m2
05:53 64.9 °F /  18.3 °C 59.9 °F /  15.5 °C 30in /  1015.6hPa West 2mph /  3.2km/h 4mph /  6.4km/h 84% 0in /  0.0mm 0 W/m2
05:58 64.9 °F /  18.3 °C 59.7 °F /  15.4 °C 30in /  1015.6hPa WNW 4mph /  6.4km/h 5mph /  8km/h 83% 0in /  0.0mm 0 W/m2
06:03 64.8 °F /  18.2 °C 59.5 °F /  15.3 °C 30in /  1015.6hPa West 0.9mph /  1.4km/h 4mph /  6.4km/h 83% 0in /  0.0mm 0 W/m2
06:08 64.6 °F /  18.1 °C 59 °F /  15 °C 30in /  1015.6hPa West 2mph /  3.2km/h 4mph /  6.4km/h 82% 0in /  0.0mm 0 W/m2
06:13 64.4 °F /  18 °C 58.8 °F /  14.9 °C 30in /  1015.6hPa WNW 4mph /  6.4km/h 6mph /  9.7km/h 82% 0in /  0.0mm 0 W/m2
06:18 64.2 °F /  17.9 °C 58.6 °F /  14.8 °C 30in /  1015.6hPa West 2mph /  3.2km/h 7mph /  11.3km/h 82% 0in /  0.0mm 0 W/m2
06:23 64 °F /  17.8 °C 58.1 °F /  14.5 °C 30in /  1015.6hPa West 2.9mph /  4.7km/h 3mph /  4.8km/h 81% 0in /  0.0mm 0 W/m2
06:28 64 °F /  17.8 °C 58.1 °F /  14.5 °C 30in /  1015.6hPa West 2mph /  3.2km/h 7mph /  11.3km/h 81% 0in /  0.0mm 0 W/m2
06:33 63.9 °F /  17.7 °C 57.9 °F /  14.4 °C 30in /  1015.6hPa West 0.9mph /  1.4km/h 3mph /  4.8km/h 81% 0in /  0.0mm 0 W/m2
06:38 63.7 °F /  17.6 °C 58.5 °F /  14.7 °C 30in /  1015.6hPa WSW 0.9mph /  1.4km/h 6mph /  9.7km/h 83% 0in /  0.0mm 0 W/m2
06:43 63.5 °F /  17.5 °C 58.6 °F /  14.8 °C 30in /  1015.6hPa West 0.9mph /  1.4km/h 3mph /  4.8km/h 84% 0in /  0.0mm 0 W/m2
06:48 63.1 °F /  17.3 °C 58.3 °F /  14.6 °C 30in /  1015.9hPa West 2.9mph /  4.7km/h 4mph /  6.4km/h 84% 0in /  0.0mm 5 W/m2
06:53 63 °F /  17.2 °C 58.5 °F /  14.7 °C 30in /  1015.6hPa WNW 0.9mph /  1.4km/h 2mph /  3.2km/h 85% 0in /  0.0mm 7 W/m2
06:58 63 °F /  17.2 °C 58.6 °F /  14.8 °C 30in /  1015.6hPa West 2mph /  3.2km/h 3mph /  4.8km/h 86% 0in /  0.0mm 7 W/m2
07:03 62.6 °F /  17 °C 58.3 °F /  14.6 °C 30in /  1015.9hPa NW 2.9mph /  4.7km/h 4mph /  6.4km/h 86% 0in /  0.0mm 9 W/m2
07:08 62.4 °F /  16.9 °C 58.1 °F /  14.5 °C 30in /  1015.9hPa Calm   2mph /  3.2km/h 86% 0in /  0.0mm 11 W/m2
07:13 62.4 °F /  16.9 °C 58.1 °F /  14.5 °C 30in /  1015.9hPa West 2mph /  3.2km/h 4mph /  6.4km/h 86% 0in /  0.0mm 11 W/m2
07:18 62.2 °F /  16.8 °C 57.9 °F /  14.4 °C 30in /  1015.9hPa West 0.9mph /  1.4km/h 3mph /  4.8km/h 86% 0in /  0.0mm 12 W/m2
07:23 62.1 °F /  16.7 °C 57.7 °F /  14.3 °C 30in /  1016.3hPa WNW 2.9mph /  4.7km/h 3mph /  4.8km/h 86% 0in /  0.0mm 14 W/m2
07:28 61.9 °F /  16.6 °C 57.6 °F /  14.2 °C 30in /  1016.3hPa West 0.9mph /  1.4km/h 3mph /  4.8km/h 86% 0in /  0.0mm 14 W/m2
07:33 61.7 °F /  16.5 °C 57.4 °F /  14.1 °C 30in /  1016.3hPa West 0.9mph /  1.4km/h 6mph /  9.7km/h 86% 0in /  0.0mm 18 W/m2
07:38 61.5 °F /  16.4 °C 57.4 °F /  14.1 °C 30in /  1016.3hPa West 0.9mph /  1.4km/h 2mph /  3.2km/h 86% 0in /  0.0mm 23 W/m2
07:43 61.5 °F /  16.4 °C 57.6 °F /  14.2 °C 30in /  1016.3hPa WSW 0.9mph /  1.4km/h 7mph /  11.3km/h 87% 0in /  0.0mm 40 W/m2
07:48 61.5 °F /  16.4 °C 57.6 °F /  14.2 °C 30in /  1016.3hPa WNW 0.9mph /  1.4km/h 3mph /  4.8km/h 87% 0in /  0.0mm 81 W/m2
07:53 61.9 °F /  16.6 °C 57.6 °F /  14.2 °C 30in /  1016.3hPa WNW 4.9mph /  7.9km/h 8mph /  12.9km/h 86% 0in /  0.0mm 46 W/m2
07:58 61.9 °F /  16.6 °C 57.6 °F /  14.2 °C 30in /  1016.3hPa WNW 0.9mph /  1.4km/h 4mph /  6.4km/h 86% 0in /  0.0mm 100 W/m2
08:03 61.9 °F /  16.6 °C 57.6 °F /  14.2 °C 30in /  1016.6hPa West 2.9mph /  4.7km/h 6mph /  9.7km/h 86% 0in /  0.0mm 91 W/m2
08:08 62.1 °F /  16.7 °C 57.7 °F /  14.3 °C 30in /  1016.6hPa WNW 2.9mph /  4.7km/h 8mph /  12.9km/h 86% 0in /  0.0mm 35 W/m2
08:13 62.1 °F /  16.7 °C 57.6 °F /  14.2 °C 30in /  1016.3hPa West 4mph /  6.4km/h 8mph /  12.9km/h 85% 0in /  0.0mm 35 W/m2
08:18 62.1 °F /  16.7 °C 57.6 °F /  14.2 °C 30in /  1016.3hPa West 4mph /  6.4km/h 5mph /  8km/h 85% 0in /  0.0mm 40 W/m2
08:23 62.1 °F /  16.7 °C 57.6 °F /  14.2 °C 30in /  1016.6hPa West 2.9mph /  4.7km/h 8mph /  12.9km/h 85% 0in /  0.0mm 39 W/m2
08:28 62.4 °F /  16.9 °C 57.6 °F /  14.2 °C 30in /  1016.6hPa WNW 2.9mph /  4.7km/h 7mph /  11.3km/h 84% 0in /  0.0mm 37 W/m2
08:33 62.6 °F /  17 °C 57.4 °F /  14.1 °C 30in /  1016.6hPa WNW 2.9mph /  4.7km/h 8mph /  12.9km/h 83% 0in /  0.0mm 40 W/m2
08:38 62.8 °F /  17.1 °C 57.6 °F /  14.2 °C 30in /  1016.6hPa West 2.9mph /  4.7km/h 8mph /  12.9km/h 83% 0in /  0.0mm 39 W/m2
08:43 63 °F /  17.2 °C 57.4 °F /  14.1 °C 30in /  1016.6hPa WNW 4mph /  6.4km/h 6mph /  9.7km/h 82% 0in /  0.0mm 40 W/m2
08:48 62.8 °F /  17.1 °C 57.2 °F /  14 °C 30in /  1016.6hPa West 4mph /  6.4km/h 7mph /  11.3km/h 82% 0in /  0.0mm 39 W/m2
08:53 62.8 °F /  17.1 °C 57.2 °F /  14 °C 30in /  1016.6hPa NW 4.9mph /  7.9km/h 8mph /  12.9km/h 82% 0in /  0.0mm 40 W/m2
08:58 62.8 °F /  17.1 °C 56.8 °F /  13.8 °C 30in /  1016.6hPa NW 4.9mph /  7.9km/h 9mph /  14.5km/h 81% 0in /  0.0mm 40 W/m2
09:03 62.8 °F /  17.1 °C 56.8 °F /  13.8 °C 30in /  1016.9hPa WSW 6.9mph /  11.1km/h 11mph /  17.7km/h 81% 0in /  0.0mm 44 W/m2
09:08 62.6 °F /  17 °C 56.7 °F /  13.7 °C 30in /  1016.9hPa NW 4mph /  6.4km/h 9mph /  14.5km/h 81% 0in /  0.0mm 46 W/m2
09:13 62.8 °F /  17.1 °C 56.8 °F /  13.8 °C 30in /  1016.9hPa West 2mph /  3.2km/h 8mph /  12.9km/h 81% 0in /  0.0mm 56 W/m2
09:18 63.1 °F /  17.3 °C 57.2 °F /  14 °C 30in /  1016.9hPa WNW 4.9mph /  7.9km/h 5mph /  8km/h 81% 0in /  0.0mm 53 W/m2
09:23 63.3 °F /  17.4 °C 57 °F /  13.9 °C 30in /  1016.9hPa West 2.9mph /  4.7km/h 7mph /  11.3km/h 80% 0in /  0.0mm 70 W/m2
09:28 63.7 °F /  17.6 °C 57.4 °F /  14.1 °C 30in /  1016.9hPa NNW 2mph /  3.2km/h 4mph /  6.4km/h 80% 0in /  0.0mm 169 W/m2
09:33 64 °F /  17.8 °C 57.4 °F /  14.1 °C 30in /  1016.9hPa WNW 2.9mph /  4.7km/h 8mph /  12.9km/h 79% 0in /  0.0mm 84 W/m2
09:38 63.9 °F /  17.7 °C 57.6 °F /  14.2 °C 30in /  1016.9hPa WNW 4mph /  6.4km/h 6mph /  9.7km/h 80% 0in /  0.0mm 67 W/m2
09:43 64.4 °F /  18 °C 57.7 °F /  14.3 °C 30in /  1016.9hPa West 2.9mph /  4.7km/h 5mph /  8km/h 79% 0in /  0.0mm 144 W/m2
09:48 64.8 °F /  18.2 °C 57.4 °F /  14.1 °C 30in /  1016.9hPa WSW 2.9mph /  4.7km/h 5mph /  8km/h 77% 0in /  0.0mm 76 W/m2
09:53 64.8 °F /  18.2 °C 57.4 °F /  14.1 °C 30in /  1016.9hPa WNW 4.9mph /  7.9km/h 7mph /  11.3km/h 77% 0in /  0.0mm 60 W/m2
09:58 64.8 °F /  18.2 °C 57.4 °F /  14.1 °C 30in /  1016.9hPa WNW 2.9mph /  4.7km/h 8mph /  12.9km/h 77% 0in /  0.0mm 54 W/m2
10:03 64.9 °F /  18.3 °C 57.6 °F /  14.2 °C 30in /  1016.9hPa NNW 4mph /  6.4km/h 8mph /  12.9km/h 77% 0in /  0.0mm 90 W/m2
10:08 65.1 °F /  18.4 °C 57.4 °F /  14.1 °C 30in /  1017.3hPa WSW 4mph /  6.4km/h 5mph /  8km/h 76% 0in /  0.0mm 480 W/m2
10:13 65.5 °F /  18.6 °C 57.7 °F /  14.3 °C 30in /  1017.3hPa SW 2mph /  3.2km/h 9mph /  14.5km/h 76% 0in /  0.0mm 510 W/m2
10:18 65.5 °F /  18.6 °C 57.7 °F /  14.3 °C 30in /  1017.3hPa WNW 2mph /  3.2km/h 3mph /  4.8km/h 76% 0in /  0.0mm 517 W/m2
10:23 65.8 °F /  18.8 °C 57.7 °F /  14.3 °C 30in /  1017.3hPa West 6mph /  9.7km/h 10mph /  16.1km/h 75% 0in /  0.0mm 526 W/m2
10:28 66 °F /  18.9 °C 57.9 °F /  14.4 °C 30in /  1017.3hPa WNW 4.9mph /  7.9km/h 8mph /  12.9km/h 75% 0in /  0.0mm 529 W/m2
10:33 66.4 °F /  19.1 °C 57.9 °F /  14.4 °C 30in /  1017.3hPa West 6mph /  9.7km/h 10mph /  16.1km/h 74% 0in /  0.0mm 548 W/m2
10:38 66.6 °F /  19.2 °C 58.1 °F /  14.5 °C 30in /  1017.3hPa SW 6.9mph /  11.1km/h 9mph /  14.5km/h 74% 0in /  0.0mm 563 W/m2
10:43 66.9 °F /  19.4 °C 57.9 °F /  14.4 °C 30in /  1017.3hPa NNW 2.9mph /  4.7km/h 8mph /  12.9km/h 73% 0in /  0.0mm 568 W/m2
10:48 66.9 °F /  19.4 °C 57.9 °F /  14.4 °C 30in /  1017.3hPa WSW 2.9mph /  4.7km/h 9mph /  14.5km/h 73% 0in /  0.0mm 580 W/m2
10:53 67.5 °F /  19.7 °C 58.1 °F /  14.5 °C 30in /  1017.3hPa NNW 2.9mph /  4.7km/h 8mph /  12.9km/h 72% 0in /  0.0mm 592 W/m2
10:58 67.5 °F /  19.7 °C 58.1 °F /  14.5 °C 30in /  1017.3hPa NW 8.1mph /  13km/h 9mph /  14.5km/h 72% 0in /  0.0mm 613 W/m2
11:03 67.6 °F /  19.8 °C 58.3 °F /  14.6 °C 30in /  1017.3hPa North 4mph /  6.4km/h 7mph /  11.3km/h 72% 0in /  0.0mm 613 W/m2
11:08 68 °F /  20 °C 58.6 °F /  14.8 °C 30in /  1017.3hPa WNW 2mph /  3.2km/h 8mph /  12.9km/h 72% 0in /  0.0mm 626 W/m2
11:13 68.4 °F /  20.2 °C 59 °F /  15 °C 30in /  1017.3hPa NNW 0.9mph /  1.4km/h 8mph /  12.9km/h 72% 0in /  0.0mm 675 W/m2
11:18 68.5 °F /  20.3 °C 58.3 °F /  14.6 °C 30in /  1017.3hPa WNW 2mph /  3.2km/h 8mph /  12.9km/h 70% 0in /  0.0mm 664 W/m2
11:23 69.1 °F /  20.6 °C 58.8 °F /  14.9 °C 30in /  1017.3hPa WSW 2mph /  3.2km/h 6mph /  9.7km/h 70% 0in /  0.0mm 700 W/m2
11:28 69.3 °F /  20.7 °C 58.6 °F /  14.8 °C 30in /  1017.3hPa NNW 2mph /  3.2km/h 10mph /  16.1km/h 69% 0in /  0.0mm 671 W/m2
11:33 69.4 °F /  20.8 °C 58.8 °F /  14.9 °C 30in /  1017.3hPa WSW 4.9mph /  7.9km/h 7mph /  11.3km/h 69% 0in /  0.0mm 673 W/m2
11:38 69.6 °F /  20.9 °C 58.6 °F /  14.8 °C 30in /  1017.3hPa WSW 6.9mph /  11.1km/h 10mph /  16.1km/h 68% 0in /  0.0mm 705 W/m2
11:43 70.2 °F /  21.2 °C 58.6 °F /  14.8 °C 30in /  1017.3hPa NW 2.9mph /  4.7km/h 10mph /  16.1km/h 67% 0in /  0.0mm 707 W/m2
11:48 70.2 °F /  21.2 °C 58.6 °F /  14.8 °C 30in /  1017.3hPa NW 4.9mph /  7.9km/h 9mph /  14.5km/h 67% 0in /  0.0mm 722 W/m2
11:53 70.2 °F /  21.2 °C 58.6 °F /  14.8 °C 30in /  1016.9hPa North 8.1mph /  13km/h 10mph /  16.1km/h 67% 0in /  0.0mm 717 W/m2
11:58 70.3 °F /  21.3 °C 58.5 °F /  14.7 °C 30in /  1016.9hPa WNW 2.9mph /  4.7km/h 5mph /  8km/h 66% 0in /  0.0mm 731 W/m2
12:03 70.9 °F /  21.6 °C 59 °F /  15 °C 30in /  1017.3hPa WSW 6.9mph /  11.1km/h 10mph /  16.1km/h 66% 0in /  0.0mm 745 W/m2
12:08 70.9 °F /  21.6 °C 58.5 °F /  14.7 °C 30in /  1016.9hPa NW 4.9mph /  7.9km/h 12mph /  19.3km/h 65% 0in /  0.0mm 735 W/m2
12:13 71.1 °F /  21.7 °C 57.7 °F /  14.3 °C 30in /  1016.9hPa NW 4.9mph /  7.9km/h 9mph /  14.5km/h 63% 0in /  0.0mm 754 W/m2
12:18 71.2 °F /  21.8 °C 58.5 °F /  14.7 °C 30in /  1016.9hPa West 2mph /  3.2km/h 12mph /  19.3km/h 64% 0in /  0.0mm 761 W/m2
12:23 71.8 °F /  22.1 °C 59 °F /  15 °C 30in /  1016.9hPa NW 2.9mph /  4.7km/h 7mph /  11.3km/h 64% 0in /  0.0mm 763 W/m2
12:28 72.1 °F /  22.3 °C 57.9 °F /  14.4 °C 30in /  1016.9hPa WNW 2mph /  3.2km/h 6mph /  9.7km/h 61% 0in /  0.0mm 784 W/m2
12:33 72.3 °F /  22.4 °C 58.1 °F /  14.5 °C 30in /  1016.9hPa NW 4mph /  6.4km/h 7mph /  11.3km/h 61% 0in /  0.0mm 791 W/m2
12:38 72.7 °F /  22.6 °C 57.9 °F /  14.4 °C 30in /  1016.9hPa WNW 4.9mph /  7.9km/h 8mph /  12.9km/h 60% 0in /  0.0mm 840 W/m2
12:43 72.9 °F /  22.7 °C 58.1 °F /  14.5 °C 30in /  1016.9hPa North 2mph /  3.2km/h 6mph /  9.7km/h 60% 0in /  0.0mm 824 W/m2
12:48 72.9 °F /  22.7 °C 57.2 °F /  14 °C 30in /  1016.9hPa WNW 2mph /  3.2km/h 6mph /  9.7km/h 58% 0in /  0.0mm 195 W/m2
12:53 72.3 °F /  22.4 °C 56.7 °F /  13.7 °C 30in /  1016.9hPa West 8.1mph /  13km/h 12mph /  19.3km/h 58% 0in /  0.0mm 137 W/m2
12:58 72.5 °F /  22.5 °C 57.4 °F /  14.1 °C 30in /  1016.9hPa WSW 10.1mph /  16.3km/h 10mph /  16.1km/h 59% 0in /  0.0mm 821 W/m2
13:03 72.9 °F /  22.7 °C 57.2 °F /  14 °C 30in /  1016.9hPa West 2.9mph /  4.7km/h 8mph /  12.9km/h 58% 0in /  0.0mm 823 W/m2
13:13 73.9 °F /  23.3 °C 55.8 °F /  13.2 °C 30in /  1016.6hPa NNW 6mph /  9.7km/h 8mph /  12.9km/h 53% 0in /  0.0mm 823 W/m2
13:18 73.8 °F /  23.2 °C 55.6 °F /  13.1 °C 30in /  1016.6hPa NW 4mph /  6.4km/h 13mph /  20.9km/h 53% 0in /  0.0mm 847 W/m2
13:24 73.9 °F /  23.3 °C 56.3 °F /  13.5 °C 30in /  1016.6hPa WNW 2.9mph /  4.7km/h 9mph /  14.5km/h 54% 0in /  0.0mm 823 W/m2
13:29 74.7 °F /  23.7 °C 56.5 °F /  13.6 °C 30in /  1016.9hPa West 6mph /  9.7km/h 13mph /  20.9km/h 53% 0in /  0.0mm 833 W/m2
13:34 74.7 °F /  23.7 °C 55.9 °F /  13.3 °C 30in /  1016.9hPa WSW 2.9mph /  4.7km/h 13mph /  20.9km/h 52% 0in /  0.0mm 805 W/m2
13:39 74.7 °F /  23.7 °C 56.5 °F /  13.6 °C 30in /  1016.6hPa NW 8.9mph /  14.3km/h 12mph /  19.3km/h 53% 0in /  0.0mm 809 W/m2
13:44 74.7 °F /  23.7 °C 55.9 °F /  13.3 °C 30in /  1016.9hPa WSW 6.9mph /  11.1km/h 13mph /  20.9km/h 52% 0in /  0.0mm 800 W/m2
13:49 74.8 °F /  23.8 °C 55.6 °F /  13.1 °C 30in /  1016.9hPa NNW 6mph /  9.7km/h 8mph /  12.9km/h 51% 0in /  0.0mm 798 W/m2
13:54 75 °F /  23.9 °C 55.6 °F /  13.1 °C 30in /  1016.9hPa NW 6mph /  9.7km/h 11mph /  17.7km/h 51% 0in /  0.0mm 826 W/m2
13:59 74.8 °F /  23.8 °C 55.6 °F /  13.1 °C 30in /  1016.9hPa NW 4mph /  6.4km/h 7mph /  11.3km/h 51% 0in /  0.0mm 796 W/m2
14:04 74.8 °F /  23.8 °C 55 °F /  12.8 °C 30in /  1016.9hPa NW 2mph /  3.2km/h 8mph /  12.9km/h 50% 0in /  0.0mm 791 W/m2
14:09 75.4 °F /  24.1 °C 54.3 °F /  12.4 °C 30in /  1016.6hPa NW 4mph /  6.4km/h 8mph /  12.9km/h 48% 0in /  0.0mm 798 W/m2
14:14 75.7 °F /  24.3 °C 54.7 °F /  12.6 °C 30in /  1016.9hPa NW 4mph /  6.4km/h 13mph /  20.9km/h 48% 0in /  0.0mm 798 W/m2
14:19 75.7 °F /  24.3 °C 54.7 °F /  12.6 °C 30in /  1016.9hPa WNW 2mph /  3.2km/h 7mph /  11.3km/h 48% 0in /  0.0mm 795 W/m2
14:24 76.1 °F /  24.5 °C 53.2 °F /  11.8 °C 30in /  1016.6hPa WNW 8.9mph /  14.3km/h 13mph /  20.9km/h 45% 0in /  0.0mm 791 W/m2
14:29 75.6 °F /  24.2 °C 53.2 °F /  11.8 °C 30in /  1016.9hPa West 6mph /  9.7km/h 12mph /  19.3km/h 46% 0in /  0.0mm 793 W/m2
14:34 75.6 °F /  24.2 °C 54 °F /  12.2 °C 30in /  1016.6hPa West 4mph /  6.4km/h 8mph /  12.9km/h 47% 0in /  0.0mm 789 W/m2
14:39 75.7 °F /  24.3 °C 54.1 °F /  12.3 °C 30in /  1016.6hPa West 4mph /  6.4km/h 12mph /  19.3km/h 47% 0in /  0.0mm 779 W/m2
14:44 76.1 °F /  24.5 °C 54.3 °F /  12.4 °C 30in /  1016.6hPa North 4mph /  6.4km/h 8mph /  12.9km/h 47% 0in /  0.0mm 782 W/m2
14:49 76.3 °F /  24.6 °C 54.5 °F /  12.5 °C 30in /  1016.6hPa NW 8.1mph /  13km/h 10mph /  16.1km/h 47% 0in /  0.0mm 773 W/m2
14:54 76.3 °F /  24.6 °C 54 °F /  12.2 °C 30in /  1016.6hPa WSW 8.1mph /  13km/h 11mph /  17.7km/h 46% 0in /  0.0mm 768 W/m2
14:59 75.7 °F /  24.3 °C 54.7 °F /  12.6 °C 30in /  1016.6hPa NNW 2mph /  3.2km/h 8mph /  12.9km/h 48% 0in /  0.0mm 765 W/m2
15:04 76.3 °F /  24.6 °C 54.5 °F /  12.5 °C 30in /  1016.6hPa West 4mph /  6.4km/h 10mph /  16.1km/h 47% 0in /  0.0mm 758 W/m2
15:09 76.5 °F /  24.7 °C 54.1 °F /  12.3 °C 30in /  1016.6hPa WSW 6.9mph /  11.1km/h 9mph /  14.5km/h 46% 0in /  0.0mm 759 W/m2
15:14 76.5 °F /  24.7 °C 54.1 °F /  12.3 °C 30in /  1016.6hPa NW 2.9mph /  4.7km/h 8mph /  12.9km/h 46% 0in /  0.0mm 747 W/m2
15:19 76.6 °F /  24.8 °C 54.3 °F /  12.4 °C 30in /  1016.6hPa West 4mph /  6.4km/h 12mph /  19.3km/h 46% 0in /  0.0mm 751 W/m2
15:24 76.6 °F /  24.8 °C 54.3 °F /  12.4 °C 30in /  1016.6hPa WSW 6mph /  9.7km/h 8mph /  12.9km/h 46% 0in /  0.0mm 747 W/m2
15:29 76.6 °F /  24.8 °C 53.8 °F /  12.1 °C 30in /  1016.6hPa WNW 2mph /  3.2km/h 12mph /  19.3km/h 45% 0in /  0.0mm 742 W/m2
15:34 77.2 °F /  25.1 °C 53.6 °F /  12 °C 30in /  1016.6hPa West 11mph /  17.7km/h 12mph /  19.3km/h 44% 0in /  0.0mm 733 W/m2
15:39 77.2 °F /  25.1 °C 53.6 °F /  12 °C 30in /  1016.6hPa NW 2mph /  3.2km/h 8mph /  12.9km/h 44% 0in /  0.0mm 719 W/m2
15:44 77.2 °F /  25.1 °C 52.9 °F /  11.6 °C 30in /  1016.6hPa SW 2mph /  3.2km/h 14mph /  22.5km/h 43% 0in /  0.0mm 715 W/m2
15:49 77.2 °F /  25.1 °C 52.3 °F /  11.3 °C 30in /  1016.6hPa North 2.9mph /  4.7km/h 11mph /  17.7km/h 42% 0in /  0.0mm 712 W/m2
15:54 77.5 °F /  25.3 °C 52.7 °F /  11.5 °C 30in /  1016.3hPa West 8.1mph /  13km/h 12mph /  19.3km/h 42% 0in /  0.0mm 693 W/m2
15:59 78.1 °F /  25.6 °C 53.8 °F /  12.1 °C 30in /  1016.3hPa NW 8.9mph /  14.3km/h 10mph /  16.1km/h 43% 0in /  0.0mm 684 W/m2
16:04 77.9 °F /  25.5 °C 53.6 °F /  12 °C 30in /  1016.3hPa WNW 0.9mph /  1.4km/h 7mph /  11.3km/h 43% 0in /  0.0mm 687 W/m2
16:09 78.1 °F /  25.6 °C 53.1 °F /  11.7 °C 30in /  1016.6hPa NW 4mph /  6.4km/h 9mph /  14.5km/h 42% 0in /  0.0mm 673 W/m2
16:14 78.1 °F /  25.6 °C 53.8 °F /  12.1 °C 30in /  1016.3hPa West 6.9mph /  11.1km/h 10mph /  16.1km/h 43% 0in /  0.0mm 661 W/m2
16:19 78.1 °F /  25.6 °C 53.1 °F /  11.7 °C 30in /  1016.3hPa NW 4.9mph /  7.9km/h 8mph /  12.9km/h 42% 0in /  0.0mm 654 W/m2
16:24 78.1 °F /  25.6 °C 53.8 °F /  12.1 °C 30in /  1016.3hPa NW 2.9mph /  4.7km/h 8mph /  12.9km/h 43% 0in /  0.0mm 642 W/m2
16:29 78.3 °F /  25.7 °C 52.7 °F /  11.5 °C 30in /  1016.3hPa West 4mph /  6.4km/h 11mph /  17.7km/h 41% 0in /  0.0mm 640 W/m2
16:34 78.4 °F /  25.8 °C 51.4 °F /  10.8 °C 30in /  1016.3hPa NW 4.9mph /  7.9km/h 9mph /  14.5km/h 39% 0in /  0.0mm 636 W/m2
16:39 78.3 °F /  25.7 °C 52.7 °F /  11.5 °C 30in /  1016.3hPa WNW 4.9mph /  7.9km/h 7mph /  11.3km/h 41% 0in /  0.0mm 624 W/m2
16:44 78.1 °F /  25.6 °C 52.5 °F /  11.4 °C 30in /  1016.3hPa WNW 2.9mph /  4.7km/h 8mph /  12.9km/h 41% 0in /  0.0mm 606 W/m2
16:49 78.4 °F /  25.8 °C 52.7 °F /  11.5 °C 30in /  1016.3hPa WSW 8.1mph /  13km/h 9mph /  14.5km/h 41% 0in /  0.0mm 594 W/m2
16:54 78.8 °F /  26 °C 53.1 °F /  11.7 °C 30in /  1016.3hPa North 4.9mph /  7.9km/h 10mph /  16.1km/h 41% 0in /  0.0mm 575 W/m2
16:59 78.8 °F /  26 °C 53.1 °F /  11.7 °C 30in /  1016.3hPa West 6mph /  9.7km/h 8mph /  12.9km/h 41% 0in /  0.0mm 577 W/m2
17:04 79.2 °F /  26.2 °C 52.7 °F /  11.5 °C 30in /  1016.3hPa WNW 4mph /  6.4km/h 8mph /  12.9km/h 40% 0in /  0.0mm 564 W/m2
17:09 79.2 °F /  26.2 °C 53.4 °F /  11.9 °C 30in /  1016.3hPa NNW 2mph /  3.2km/h 7mph /  11.3km/h 41% 0in /  0.0mm 550 W/m2
17:14 79.2 °F /  26.2 °C 53.4 °F /  11.9 °C 30in /  1015.9hPa West 6.9mph /  11.1km/h 7mph /  11.3km/h 41% 0in /  0.0mm 533 W/m2
17:19 78.8 °F /  26 °C 53.1 °F /  11.7 °C 30in /  1015.9hPa WSW 4.9mph /  7.9km/h 8mph /  12.9km/h 41% 0in /  0.0mm 524 W/m2
17:24 78.6 °F /  25.9 °C 52.3 °F /  11.3 °C 30in /  1015.9hPa West 6mph /  9.7km/h 9mph /  14.5km/h 40% 0in /  0.0mm 515 W/m2
17:29 79 °F /  26.1 °C 52.5 °F /  11.4 °C 30in /  1015.9hPa WNW 4mph /  6.4km/h 10mph /  16.1km/h 40% 0in /  0.0mm 499 W/m2
17:34 78.6 °F /  25.9 °C 52.9 °F /  11.6 °C 30in /  1015.9hPa West 8.1mph /  13km/h 13mph /  20.9km/h 41% 0in /  0.0mm 490 W/m2
17:39 78.6 °F /  25.9 °C 52.3 °F /  11.3 °C 30in /  1015.9hPa WNW 6mph /  9.7km/h 9mph /  14.5km/h 40% 0in /  0.0mm 473 W/m2
17:44 78.6 °F /  25.9 °C 52.3 °F /  11.3 °C 30in /  1015.9hPa West 2.9mph /  4.7km/h 11mph /  17.7km/h 40% 0in /  0.0mm 462 W/m2
17:49 78.8 °F /  26 °C 52.5 °F /  11.4 °C 30in /  1015.9hPa North 2.9mph /  4.7km/h 10mph /  16.1km/h 40% 0in /  0.0mm 454 W/m2
17:54 79.2 °F /  26.2 °C 52.2 °F /  11.2 °C 30in /  1015.9hPa West 8.1mph /  13km/h 9mph /  14.5km/h 39% 0in /  0.0mm 438 W/m2
17:59 79.2 °F /  26.2 °C 52.2 °F /  11.2 °C 30in /  1015.9hPa WNW 2mph /  3.2km/h 8mph /  12.9km/h 39% 0in /  0.0mm 415 W/m2
18:04 79.2 °F /  26.2 °C 52.7 °F /  11.5 °C 30in /  1015.9hPa NW 8.1mph /  13km/h 9mph /  14.5km/h 40% 0in /  0.0mm 406 W/m2
18:09 78.8 °F /  26 °C 52.5 °F /  11.4 °C 30in /  1015.9hPa SW 4mph /  6.4km/h 7mph /  11.3km/h 40% 0in /  0.0mm 373 W/m2
18:14 78.6 °F /  25.9 °C 52.9 °F /  11.6 °C 30in /  1015.9hPa NW 2mph /  3.2km/h 10mph /  16.1km/h 41% 0in /  0.0mm 366 W/m2
18:19 78.6 °F /  25.9 °C 53.6 °F /  12 °C 30in /  1015.9hPa West 2mph /  3.2km/h 11mph /  17.7km/h 42% 0in /  0.0mm 353 W/m2
18:24 78.6 °F /  25.9 °C 53.6 °F /  12 °C 30in /  1015.9hPa West 0.9mph /  1.4km/h 3mph /  4.8km/h 42% 0in /  0.0mm 339 W/m2
18:29 79 °F /  26.1 °C 53.2 °F /  11.8 °C 30in /  1015.9hPa West 2mph /  3.2km/h 11mph /  17.7km/h 41% 0in /  0.0mm 334 W/m2
18:34 79 °F /  26.1 °C 53.2 °F /  11.8 °C 30in /  1015.9hPa NW 2.9mph /  4.7km/h 8mph /  12.9km/h 41% 0in /  0.0mm 318 W/m2
18:39 78.8 °F /  26 °C 53.8 °F /  12.1 °C 30in /  1015.9hPa NW 2mph /  3.2km/h 8mph /  12.9km/h 42% 0in /  0.0mm 301 W/m2
18:44 78.6 °F /  25.9 °C 52.9 °F /  11.6 °C 30in /  1015.9hPa WSW 2.9mph /  4.7km/h 5mph /  8km/h 41% 0in /  0.0mm 283 W/m2
18:49 78.4 °F /  25.8 °C 53.4 °F /  11.9 °C 30in /  1015.9hPa West 4mph /  6.4km/h 7mph /  11.3km/h 42% 0in /  0.0mm 269 W/m2
18:54 78.3 °F /  25.7 °C 53.2 °F /  11.8 °C 30in /  1015.9hPa NW 2mph /  3.2km/h 6mph /  9.7km/h 42% 0in /  0.0mm 237 W/m2
18:59 78.1 °F /  25.6 °C 53.1 °F /  11.7 °C 30in /  1015.9hPa WNW 4mph /  6.4km/h 5mph /  8km/h 42% 0in /  0.0mm 230 W/m2
19:04 78.1 °F /  25.6 °C 53.1 °F /  11.7 °C 30in /  1015.9hPa West 6mph /  9.7km/h 7mph /  11.3km/h 42% 0in /  0.0mm 221 W/m2
19:09 77.7 °F /  25.4 °C 53.4 °F /  11.9 °C 30in /  1015.9hPa NNW 4mph /  6.4km/h 8mph /  12.9km/h 43% 0in /  0.0mm 197 W/m2
19:14 77.7 °F /  25.4 °C 54.1 °F /  12.3 °C 30in /  1015.9hPa NW 2mph /  3.2km/h 7mph /  11.3km/h 44% 0in /  0.0mm 169 W/m2
19:19 77.7 °F /  25.4 °C 54.1 °F /  12.3 °C 30in /  1015.9hPa WNW 2.9mph /  4.7km/h 10mph /  16.1km/h 44% 0in /  0.0mm 151 W/m2
19:24 77.5 °F /  25.3 °C 54 °F /  12.2 °C 30in /  1015.9hPa WSW 0.9mph /  1.4km/h 5mph /  8km/h 44% 0in /  0.0mm 58 W/m2
19:29 77.5 °F /  25.3 °C 54.5 °F /  12.5 °C 30in /  1015.9hPa West 2.9mph /  4.7km/h 7mph /  11.3km/h 45% 0in /  0.0mm 40 W/m2
19:34 77.4 °F /  25.2 °C 54.3 °F /  12.4 °C 30in /  1015.9hPa WNW 4mph /  6.4km/h 4mph /  6.4km/h 45% 0in /  0.0mm 37 W/m2
19:39 77.2 °F /  25.1 °C 54.9 °F /  12.7 °C 30in /  1015.9hPa NW 2mph /  3.2km/h 4mph /  6.4km/h 46% 0in /  0.0mm 35 W/m2
19:44 76.8 °F /  24.9 °C 54.5 °F /  12.5 °C 30in /  1015.9hPa WSW 2.9mph /  4.7km/h 5mph /  8km/h 46% 0in /  0.0mm 32 W/m2
19:49 76.5 °F /  24.7 °C 54.7 °F /  12.6 °C 30in /  1015.9hPa West 0.9mph /  1.4km/h 7mph /  11.3km/h 47% 0in /  0.0mm 30 W/m2
19:54 76.1 °F /  24.5 °C 55 °F /  12.8 °C 30in /  1015.9hPa West 2.9mph /  4.7km/h 4mph /  6.4km/h 48% 0in /  0.0mm 28 W/m2
19:59 75.7 °F /  24.3 °C 54.7 °F /  12.6 °C 30in /  1015.9hPa NW 2mph /  3.2km/h 8mph /  12.9km/h 48% 0in /  0.0mm 25 W/m2
20:04 75.4 °F /  24.1 °C 54.9 °F /  12.7 °C 30in /  1016.3hPa West 4mph /  6.4km/h 4mph /  6.4km/h 49% 0in /  0.0mm 21 W/m2
20:09 74.8 °F /  23.8 °C 55 °F /  12.8 °C 30in /  1016.3hPa West 2.9mph /  4.7km/h 8mph /  12.9km/h 50% 0in /  0.0mm 19 W/m2
20:14 74.3 °F /  23.5 °C 54.5 °F /  12.5 °C 30in /  1016.3hPa WNW 6.9mph /  11.1km/h 7mph /  11.3km/h 50% 0in /  0.0mm 16 W/m2
20:19 73.9 °F /  23.3 °C 54.1 °F /  12.3 °C 30in /  1016.3hPa West 6mph /  9.7km/h 6mph /  9.7km/h 50% 0in /  0.0mm 14 W/m2
20:24 73.6 °F /  23.1 °C 54.3 °F /  12.4 °C 30in /  1016.3hPa West 2mph /  3.2km/h 7mph /  11.3km/h 51% 0in /  0.0mm 12 W/m2
20:29 73.2 °F /  22.9 °C 54 °F /  12.2 °C 30in /  1016.3hPa West 2.9mph /  4.7km/h 6mph /  9.7km/h 51% 0in /  0.0mm 9 W/m2
20:34 73 °F /  22.8 °C 53.8 °F /  12.1 °C 30in /  1016.3hPa West 2mph /  3.2km/h 6mph /  9.7km/h 51% 0in /  0.0mm 7 W/m2
20:39 72.9 °F /  22.7 °C 53.6 °F /  12 °C 30in /  1016.3hPa SW 4mph /  6.4km/h 5mph /  8km/h 51% 0in /  0.0mm 5 W/m2
20:44 72.5 °F /  22.5 °C 54 °F /  12.2 °C 30in /  1016.3hPa West 4mph /  6.4km/h 7mph /  11.3km/h 52% 0in /  0.0mm 0 W/m2
20:49 72.3 °F /  22.4 °C 53.8 °F /  12.1 °C 30in /  1016.3hPa West 2mph /  3.2km/h 5mph /  8km/h 52% 0in /  0.0mm 0 W/m2
20:54 72.1 °F /  22.3 °C 54.1 °F /  12.3 °C 30in /  1016.3hPa West 4mph /  6.4km/h 6mph /  9.7km/h 53% 0in /  0.0mm 0 W/m2
20:59 71.8 °F /  22.1 °C 53.8 °F /  12.1 °C 30in /  1016.3hPa West 4mph /  6.4km/h 8mph /  12.9km/h 53% 0in /  0.0mm 0 W/m2
21:04 71.6 °F /  22 °C 53.6 °F /  12 °C 30in /  1016.3hPa West 2.9mph /  4.7km/h 9mph /  14.5km/h 53% 0in /  0.0mm 0 W/m2
21:09 71.4 °F /  21.9 °C 53.4 °F /  11.9 °C 30in /  1016.6hPa West 2.9mph /  4.7km/h 9mph /  14.5km/h 53% 0in /  0.0mm 0 W/m2
21:14 71.2 °F /  21.8 °C 53.2 °F /  11.8 °C 30in /  1016.6hPa WNW 6.9mph /  11.1km/h 8mph /  12.9km/h 53% 0in /  0.0mm 0 W/m2
21:19 71.2 °F /  21.8 °C 53.8 °F /  12.1 °C 30in /  1016.3hPa West 2.9mph /  4.7km/h 7mph /  11.3km/h 54% 0in /  0.0mm 0 W/m2
21:24 70.9 °F /  21.6 °C 53.4 °F /  11.9 °C 30in /  1016.6hPa West 2mph /  3.2km/h 7mph /  11.3km/h 54% 0in /  0.0mm 0 W/m2
21:30 70.9 °F /  21.6 °C 53.4 °F /  11.9 °C 30in /  1016.6hPa WSW 4.9mph /  7.9km/h 8mph /  12.9km/h 54% 0in /  0.0mm 0 W/m2
21:35 70.5 °F /  21.4 °C 53.1 °F /  11.7 °C 30in /  1016.6hPa WSW 4mph /  6.4km/h 8mph /  12.9km/h 54% 0in /  0.0mm 0 W/m2
21:40 70.5 °F /  21.4 °C 53.1 °F /  11.7 °C 30in /  1016.6hPa WSW 8.1mph /  13km/h 8mph /  12.9km/h 54% 0in /  0.0mm 0 W/m2
21:45 70.3 °F /  21.3 °C 53.4 °F /  11.9 °C 30in /  1016.6hPa WNW 2mph /  3.2km/h 9mph /  14.5km/h 55% 0in /  0.0mm 0 W/m2
21:50 70.2 °F /  21.2 °C 53.2 °F /  11.8 °C 30in /  1016.6hPa WSW 6.9mph /  11.1km/h 9mph /  14.5km/h 55% 0in /  0.0mm 0 W/m2
21:55 70.2 °F /  21.2 °C 53.2 °F /  11.8 °C 30in /  1016.6hPa West 2.9mph /  4.7km/h 9mph /  14.5km/h 55% 0in /  0.0mm 0 W/m2
22:00 70 °F /  21.1 °C 53.1 °F /  11.7 °C 30in /  1016.6hPa SW 4.9mph /  7.9km/h 8mph /  12.9km/h 55% 0in /  0.0mm 0 W/m2
22:05 70 °F /  21.1 °C 53.1 °F /  11.7 °C 30in /  1016.6hPa WSW 6.9mph /  11.1km/h 8mph /  12.9km/h 55% 0in /  0.0mm 0 W/m2
22:10 69.8 °F /  21 °C 53.4 °F /  11.9 °C 30in /  1016.6hPa WNW 4mph /  6.4km/h 9mph /  14.5km/h 56% 0in /  0.0mm 0 W/m2
22:15 69.6 °F /  20.9 °C 53.2 °F /  11.8 °C 30in /  1016.6hPa West 4mph /  6.4km/h 6mph /  9.7km/h 56% 0in /  0.0mm 0 W/m2
22:20 69.6 °F /  20.9 °C 53.2 °F /  11.8 °C 30in /  1016.6hPa WNW 4.9mph /  7.9km/h 10mph /  16.1km/h 56% 0in /  0.0mm 0 W/m2
22:25 69.6 °F /  20.9 °C 53.2 °F /  11.8 °C 30in /  1016.6hPa West 2.9mph /  4.7km/h 9mph /  14.5km/h 56% 0in /  0.0mm 0 W/m2
22:30 69.6 °F /  20.9 °C 53.2 °F /  11.8 °C 30in /  1016.6hPa WNW 2.9mph /  4.7km/h 10mph /  16.1km/h 56% 0in /  0.0mm 0 W/m2
22:35 69.4 °F /  20.8 °C 53.1 °F /  11.7 °C 30in /  1016.9hPa WNW 2.9mph /  4.7km/h 7mph /  11.3km/h 56% 0in /  0.0mm 0 W/m2
22:40 69.1 °F /  20.6 °C 53.2 °F /  11.8 °C 30in /  1016.9hPa West 2.9mph /  4.7km/h 3mph /  4.8km/h 57% 0in /  0.0mm 0 W/m2
22:45 68.7 °F /  20.4 °C 53.4 °F /  11.9 °C 30in /  1016.9hPa WNW 2mph /  3.2km/h 6mph /  9.7km/h 58% 0in /  0.0mm 0 W/m2
22:50 68.5 °F /  20.3 °C 53.2 °F /  11.8 °C 30in /  1016.9hPa West 2mph /  3.2km/h 4mph /  6.4km/h 58% 0in /  0.0mm 0 W/m2
22:55 68.2 °F /  20.1 °C 53.2 °F /  11.8 °C 30in /  1016.9hPa West 2.9mph /  4.7km/h 3mph /  4.8km/h 59% 0in /  0.0mm 0 W/m2
23:00 67.8 °F /  19.9 °C 53.4 °F /  11.9 °C 30in /  1016.9hPa WSW 4mph /  6.4km/h 7mph /  11.3km/h 60% 0in /  0.0mm 0 W/m2
23:05 67.6 °F /  19.8 °C 53.2 °F /  11.8 °C 30in /  1016.9hPa WSW 4mph /  6.4km/h 7mph /  11.3km/h 60% 0in /  0.0mm 0 W/m2
23:10 67.6 °F /  19.8 °C 53.2 °F /  11.8 °C 30in /  1016.9hPa West 4mph /  6.4km/h 8mph /  12.9km/h 60% 0in /  0.0mm 0 W/m2
23:15 67.6 °F /  19.8 °C 53.2 °F /  11.8 °C 30in /  1016.6hPa West 4mph /  6.4km/h 7mph /  11.3km/h 60% 0in /  0.0mm 0 W/m2
23:20 67.5 °F /  19.7 °C 53.6 °F /  12 °C 30in /  1016.6hPa West 2mph /  3.2km/h 4mph /  6.4km/h 61% 0in /  0.0mm 0 W/m2
23:25 67.3 °F /  19.6 °C 53.4 °F /  11.9 °C 30in /  1016.6hPa WNW 0.9mph /  1.4km/h 3mph /  4.8km/h 61% 0in /  0.0mm 0 W/m2
23:30 67.3 °F /  19.6 °C 53.8 °F /  12.1 °C 30in /  1016.6hPa West 2.9mph /  4.7km/h 4mph /  6.4km/h 62% 0in /  0.0mm 0 W/m2
23:35 67.1 °F /  19.5 °C 53.6 °F /  12 °C 30in /  1016.9hPa West 2mph /  3.2km/h 5mph /  8km/h 62% 0in /  0.0mm 0 W/m2
23:40 67.1 °F /  19.5 °C 53.6 °F /  12 °C 30in /  1016.6hPa WSW 2mph /  3.2km/h 4mph /  6.4km/h 62% 0in /  0.0mm 0 W/m2
23:45 67.1 °F /  19.5 °C 53.6 °F /  12 °C 30in /  1016.6hPa West 2mph /  3.2km/h 3mph /  4.8km/h 62% 0in /  0.0mm 0 W/m2
23:50 67.1 °F /  19.5 °C 53.6 °F /  12 °C 30in /  1016.6hPa West 2mph /  3.2km/h 4mph /  6.4km/h 62% 0in /  0.0mm 0 W/m2
23:55 66.9 °F /  19.4 °C 53.4 °F /  11.9 °C 30in /  1016.6hPa West 2.9mph /  4.7km/h 6mph /  9.7km/h 62% 0in /  0.0mm 0 W/m2
Juneau County Weather
Compliments of Weather Underground - 4 mb